Pagrindinis puslapis
METAR-TAF:

METAR-TAF

Oro uostai :

Galena, Aliaska, Jungtinės Amerikos Valstijos

platuma: 64-44N, ilguma: 156-56W, Aukštis: 46 m

Dabartinis oras

Ataskaita buvo paskelbta 1 valandą ir 3 minutes, ne 09:56 UTC
Vėjas 5 kt iš Šiaurės/Šiaurės Vakarų
Temperatūra -24°C
Drėgmė 76%
Slėgis 1016 hPa
Matomumas: 16.1 km
Giedras dangus

METAR: PAGA 260956Z 34005KT 10SM CLR M24/M27 A3000 RMK AO2 SLP167 T12391267 FZRANO

Laikas: 01:59 (10:59 UTC)

Prognozė

Ataskaita buvo paskelbta 5 valandos ir 39 minutes, ne 05:20 UTC
Prognozė galioja nuo 26 metu 06 UTC su 27 metu 06 UTC
Vėjas 3 kt nuo kintamojo kryptimis
Matomumas: 10 km
Giedras dangus

TAF: PAGA 260520Z 2606/2706 VRB03KT P6SM SKC

Orai ataskaitas ir orų prognozės (METAR, TAF).

turimą stotys yra geltonos ir raudonos taškus žemėlapyje.

Perkelti pele per norėdami pamatyti stoties vardą.

Tada spustelėkite, norėdami matyti oro stebėjimo ir prognozės.

Norėdami pakeisti žemėlapį: spustelėkite ant žalios mygtukų su juodo kryžiaus žemyn,; žalią mygtuką su brūkšneliu, jei norite nutolinti; arba žalių rodyklių gretimoms žemėlapius.


METAR-TAF: